sensor_id;sensor_type;location;lat;lon;timestamp;P1;durP1;ratioP1;P2;durP2;ratioP2
2388;SDS011;1205;47.984;7.668;2024-01-30T00:01:50;17.60;;;10.70;;
2388;SDS011;1205;47.984;7.668;2024-01-30T00:04:16;10.37;;;7.43;;
2388;SDS011;1205;47.984;7.668;2024-01-30T00:06:42;12.03;;;7.83;;
2388;SDS011;1205;47.984;7.668;2024-01-30T00:09:08;10.10;;;7.90;;
2388;SDS011;1205;47.984;7.668;2024-01-30T00:11:35;10.23;;;7.80;;
2388;SDS011;1205;47.984;7.668;2024-01-30T00:14:01;11.33;;;8.63;;
2388;SDS011;1205;47.984;7.668;2024-01-30T00:16:28;10.93;;;8.20;;
2388;SDS011;1205;47.984;7.668;2024-01-30T00:18:53;12.30;;;8.37;;
2388;SDS011;1205;47.984;7.668;2024-01-30T00:21:19;13.87;;;8.40;;
2388;SDS011;1205;47.984;7.668;2024-01-30T00:23:46;11.27;;;7.40;;
2388;SDS011;1205;47.984;7.668;2024-01-30T00:26:11;12.47;;;7.80;;
2388;SDS011;1205;47.984;7.668;2024-01-30T00:28:38;10.53;;;7.77;;
2388;SDS011;1205;47.984;7.668;2024-01-30T00:31:03;9.90;;;7.60;;
2388;SDS011;1205;47.984;7.668;2024-01-30T00:33:29;12.90;;;7.97;;
2388;SDS011;1205;47.984;7.668;2024-01-30T00:35:55;10.50;;;7.17;;
2388;SDS011;1205;47.984;7.668;2024-01-30T00:38:20;8.53;;;7.20;;
2388;SDS011;1205;47.984;7.668;2024-01-30T00:40:46;12.97;;;7.20;;
2388;SDS011;1205;47.984;7.668;2024-01-30T00:43:12;12.37;;;7.97;;
2388;SDS011;1205;47.984;7.668;2024-01-30T00:45:37;10.13;;;8.03;;
2388;SDS011;1205;47.984;7.668;2024-01-30T00:48:03;11.40;;;7.90;;
2388;SDS011;1205;47.984;7.668;2024-01-30T00:50:29;9.23;;;7.13;;
2388;SDS011;1205;47.984;7.668;2024-01-30T00:52:54;9.60;;;7.27;;
2388;SDS011;1205;47.984;7.668;2024-01-30T00:55:20;7.30;;;6.50;;
2388;SDS011;1205;47.984;7.668;2024-01-30T00:57:46;11.00;;;7.37;;
2388;SDS011;1205;47.984;7.668;2024-01-30T01:00:12;13.33;;;7.27;;
2388;SDS011;1205;47.984;7.668;2024-01-30T01:02:41;10.30;;;7.07;;
2388;SDS011;1205;47.984;7.668;2024-01-30T01:05:07;10.97;;;7.33;;
2388;SDS011;1205;47.984;7.668;2024-01-30T01:07:33;7.80;;;6.67;;
2388;SDS011;1205;47.984;7.668;2024-01-30T01:09:59;9.73;;;6.53;;
2388;SDS011;1205;47.984;7.668;2024-01-30T01:12:24;9.90;;;6.50;;
2388;SDS011;1205;47.984;7.668;2024-01-30T01:14:50;10.57;;;6.70;;
2388;SDS011;1205;47.984;7.668;2024-01-30T01:17:15;9.63;;;6.13;;
2388;SDS011;1205;47.984;7.668;2024-01-30T01:19:41;7.03;;;5.80;;
2388;SDS011;1205;47.984;7.668;2024-01-30T01:22:06;9.90;;;5.87;;
2388;SDS011;1205;47.984;7.668;2024-01-30T01:24:33;8.40;;;6.07;;
2388;SDS011;1205;47.984;7.668;2024-01-30T01:26:59;7.60;;;5.47;;
2388;SDS011;1205;47.984;7.668;2024-01-30T01:29:24;10.50;;;6.40;;
2388;SDS011;1205;47.984;7.668;2024-01-30T01:31:54;9.93;;;5.90;;
2388;SDS011;1205;47.984;7.668;2024-01-30T01:34:21;8.50;;;6.10;;
2388;SDS011;1205;47.984;7.668;2024-01-30T01:36:46;6.07;;;5.47;;
2388;SDS011;1205;47.984;7.668;2024-01-30T01:39:12;6.80;;;5.70;;
2388;SDS011;1205;47.984;7.668;2024-01-30T01:41:38;5.97;;;4.90;;
2388;SDS011;1205;47.984;7.668;2024-01-30T01:44:03;12.93;;;6.73;;
2388;SDS011;1205;47.984;7.668;2024-01-30T01:46:30;7.03;;;5.90;;
2388;SDS011;1205;47.984;7.668;2024-01-30T01:48:58;5.70;;;5.10;;
2388;SDS011;1205;47.984;7.668;2024-01-30T01:51:26;10.00;;;6.30;;
2388;SDS011;1205;47.984;7.668;2024-01-30T01:53:53;7.83;;;5.50;;
2388;SDS011;1205;47.984;7.668;2024-01-30T01:56:21;6.83;;;6.10;;
2388;SDS011;1205;47.984;7.668;2024-01-30T01:58:48;5.90;;;5.33;;
2388;SDS011;1205;47.984;7.668;2024-01-30T02:01:14;9.97;;;5.80;;
2388;SDS011;1205;47.984;7.668;2024-01-30T02:03:43;6.83;;;5.30;;
2388;SDS011;1205;47.984;7.668;2024-01-30T02:06:10;7.70;;;5.50;;
2388;SDS011;1205;47.984;7.668;2024-01-30T02:08:37;4.90;;;4.40;;
2388;SDS011;1205;47.984;7.668;2024-01-30T02:11:02;6.53;;;5.57;;
2388;SDS011;1205;47.984;7.668;2024-01-30T02:13:28;7.17;;;4.90;;
2388;SDS011;1205;47.984;7.668;2024-01-30T02:15:54;5.50;;;4.80;;
2388;SDS011;1205;47.984;7.668;2024-01-30T02:18:19;5.70;;;5.17;;
2388;SDS011;1205;47.984;7.668;2024-01-30T02:20:48;5.30;;;4.77;;
2388;SDS011;1205;47.984;7.668;2024-01-30T02:23:15;5.77;;;4.77;;
2388;SDS011;1205;47.984;7.668;2024-01-30T02:25:41;5.20;;;4.33;;
2388;SDS011;1205;47.984;7.668;2024-01-30T02:28:10;8.20;;;4.77;;
2388;SDS011;1205;47.984;7.668;2024-01-30T02:30:37;5.37;;;4.33;;
2388;SDS011;1205;47.984;7.668;2024-01-30T02:33:02;4.90;;;4.40;;
2388;SDS011;1205;47.984;7.668;2024-01-30T02:35:28;4.90;;;4.40;;
2388;SDS011;1205;47.984;7.668;2024-01-30T02:37:54;6.27;;;4.70;;
2388;SDS011;1205;47.984;7.668;2024-01-30T02:40:19;5.40;;;4.43;;
2388;SDS011;1205;47.984;7.668;2024-01-30T02:42:45;9.87;;;4.87;;
2388;SDS011;1205;47.984;7.668;2024-01-30T02:45:10;6.50;;;5.00;;
2388;SDS011;1205;47.984;7.668;2024-01-30T02:47:37;4.03;;;3.73;;
2388;SDS011;1205;47.984;7.668;2024-01-30T02:50:03;5.03;;;3.83;;
2388;SDS011;1205;47.984;7.668;2024-01-30T02:52:29;4.23;;;3.80;;
2388;SDS011;1205;47.984;7.668;2024-01-30T02:54:54;4.70;;;4.17;;
2388;SDS011;1205;47.984;7.668;2024-01-30T02:57:20;7.10;;;4.10;;
2388;SDS011;1205;47.984;7.668;2024-01-30T02:59:45;3.50;;;3.20;;
2388;SDS011;1205;47.984;7.668;2024-01-30T03:02:11;5.43;;;4.20;;
2388;SDS011;1205;47.984;7.668;2024-01-30T03:04:36;4.30;;;3.90;;
2388;SDS011;1205;47.984;7.668;2024-01-30T03:07:02;6.37;;;3.97;;
2388;SDS011;1205;47.984;7.668;2024-01-30T03:09:28;4.20;;;3.90;;
2388;SDS011;1205;47.984;7.668;2024-01-30T03:11:54;6.87;;;4.13;;
2388;SDS011;1205;47.984;7.668;2024-01-30T03:14:19;5.33;;;4.83;;
2388;SDS011;1205;47.984;7.668;2024-01-30T03:16:45;7.10;;;5.03;;
2388;SDS011;1205;47.984;7.668;2024-01-30T03:19:10;4.83;;;4.33;;
2388;SDS011;1205;47.984;7.668;2024-01-30T03:21:36;6.23;;;4.90;;
2388;SDS011;1205;47.984;7.668;2024-01-30T03:24:02;6.27;;;4.90;;
2388;SDS011;1205;47.984;7.668;2024-01-30T03:26:27;4.80;;;4.40;;
2388;SDS011;1205;47.984;7.668;2024-01-30T03:28:53;9.40;;;4.50;;
2388;SDS011;1205;47.984;7.668;2024-01-30T03:31:18;4.70;;;4.30;;
2388;SDS011;1205;47.984;7.668;2024-01-30T03:33:44;8.70;;;4.50;;
2388;SDS011;1205;47.984;7.668;2024-01-30T03:36:10;4.70;;;3.97;;
2388;SDS011;1205;47.984;7.668;2024-01-30T03:38:36;4.23;;;3.83;;
2388;SDS011;1205;47.984;7.668;2024-01-30T03:41:01;4.40;;;4.10;;
2388;SDS011;1205;47.984;7.668;2024-01-30T03:43:27;4.00;;;3.70;;
2388;SDS011;1205;47.984;7.668;2024-01-30T03:45:53;4.17;;;3.77;;
2388;SDS011;1205;47.984;7.668;2024-01-30T03:48:19;8.03;;;3.80;;
2388;SDS011;1205;47.984;7.668;2024-01-30T03:50:46;5.17;;;3.50;;
2388;SDS011;1205;47.984;7.668;2024-01-30T03:53:11;3.50;;;3.23;;
2388;SDS011;1205;47.984;7.668;2024-01-30T03:55:37;3.10;;;2.90;;
2388;SDS011;1205;47.984;7.668;2024-01-30T03:58:02;3.20;;;3.00;;
2388;SDS011;1205;47.984;7.668;2024-01-30T04:00:28;4.67;;;2.97;;
2388;SDS011;1205;47.984;7.668;2024-01-30T04:02:53;2.00;;;1.80;;
2388;SDS011;1205;47.984;7.668;2024-01-30T04:05:19;3.17;;;2.23;;
2388;SDS011;1205;47.984;7.668;2024-01-30T04:07:45;2.10;;;1.80;;
2388;SDS011;1205;47.984;7.668;2024-01-30T04:10:10;3.17;;;2.20;;
2388;SDS011;1205;47.984;7.668;2024-01-30T04:12:36;2.10;;;2.00;;
2388;SDS011;1205;47.984;7.668;2024-01-30T04:15:02;2.63;;;2.13;;
2388;SDS011;1205;47.984;7.668;2024-01-30T04:17:29;2.00;;;1.90;;
2388;SDS011;1205;47.984;7.668;2024-01-30T04:19:54;3.33;;;2.23;;
2388;SDS011;1205;47.984;7.668;2024-01-30T04:22:20;3.13;;;2.87;;
2388;SDS011;1205;47.984;7.668;2024-01-30T04:24:46;6.43;;;3.60;;
2388;SDS011;1205;47.984;7.668;2024-01-30T04:27:11;3.50;;;2.57;;
2388;SDS011;1205;47.984;7.668;2024-01-30T04:29:37;2.50;;;2.40;;
2388;SDS011;1205;47.984;7.668;2024-01-30T04:32:03;3.07;;;2.77;;
2388;SDS011;1205;47.984;7.668;2024-01-30T04:34:29;2.00;;;1.90;;
2388;SDS011;1205;47.984;7.668;2024-01-30T04:36:54;2.70;;;2.50;;
2388;SDS011;1205;47.984;7.668;2024-01-30T04:39:20;2.03;;;1.93;;
2388;SDS011;1205;47.984;7.668;2024-01-30T04:41:45;2.63;;;1.97;;
2388;SDS011;1205;47.984;7.668;2024-01-30T04:44:11;4.60;;;2.80;;
2388;SDS011;1205;47.984;7.668;2024-01-30T04:46:36;2.60;;;2.40;;
2388;SDS011;1205;47.984;7.668;2024-01-30T04:49:02;3.10;;;2.20;;
2388;SDS011;1205;47.984;7.668;2024-01-30T04:51:28;11.33;;;2.83;;
2388;SDS011;1205;47.984;7.668;2024-01-30T04:53:54;2.63;;;2.47;;
2388;SDS011;1205;47.984;7.668;2024-01-30T04:56:20;2.77;;;2.33;;
2388;SDS011;1205;47.984;7.668;2024-01-30T04:58:46;5.53;;;3.00;;
2388;SDS011;1205;47.984;7.668;2024-01-30T05:01:14;4.23;;;2.70;;
2388;SDS011;1205;47.984;7.668;2024-01-30T05:03:41;4.07;;;3.30;;
2388;SDS011;1205;47.984;7.668;2024-01-30T05:06:06;4.20;;;3.30;;
2388;SDS011;1205;47.984;7.668;2024-01-30T05:08:32;5.67;;;3.20;;
2388;SDS011;1205;47.984;7.668;2024-01-30T05:11:00;4.10;;;3.10;;
2388;SDS011;1205;47.984;7.668;2024-01-30T05:13:26;6.33;;;3.43;;
2388;SDS011;1205;47.984;7.668;2024-01-30T05:15:52;6.40;;;2.97;;
2388;SDS011;1205;47.984;7.668;2024-01-30T05:18:17;6.00;;;2.63;;
2388;SDS011;1205;47.984;7.668;2024-01-30T05:20:43;4.83;;;2.83;;
2388;SDS011;1205;47.984;7.668;2024-01-30T05:23:08;4.40;;;3.20;;
2388;SDS011;1205;47.984;7.668;2024-01-30T05:25:34;7.50;;;3.20;;
2388;SDS011;1205;47.984;7.668;2024-01-30T05:27:59;5.60;;;3.50;;
2388;SDS011;1205;47.984;7.668;2024-01-30T05:30:25;4.37;;;3.23;;
2388;SDS011;1205;47.984;7.668;2024-01-30T05:32:51;8.00;;;3.83;;
2388;SDS011;1205;47.984;7.668;2024-01-30T05:35:17;3.50;;;3.20;;
2388;SDS011;1205;47.984;7.668;2024-01-30T05:37:43;6.37;;;3.10;;
2388;SDS011;1205;47.984;7.668;2024-01-30T05:40:08;6.60;;;4.07;;
2388;SDS011;1205;47.984;7.668;2024-01-30T05:42:35;3.40;;;3.20;;
2388;SDS011;1205;47.984;7.668;2024-01-30T05:45:00;4.30;;;3.00;;
2388;SDS011;1205;47.984;7.668;2024-01-30T05:47:26;3.50;;;3.20;;
2388;SDS011;1205;47.984;7.668;2024-01-30T05:49:51;2.57;;;2.37;;
2388;SDS011;1205;47.984;7.668;2024-01-30T05:52:17;4.87;;;2.93;;
2388;SDS011;1205;47.984;7.668;2024-01-30T05:54:43;6.90;;;3.73;;
2388;SDS011;1205;47.984;7.668;2024-01-30T05:57:09;3.00;;;2.73;;
2388;SDS011;1205;47.984;7.668;2024-01-30T05:59:35;5.20;;;2.77;;
2388;SDS011;1205;47.984;7.668;2024-01-30T06:02:01;3.87;;;3.13;;
2388;SDS011;1205;47.984;7.668;2024-01-30T06:04:26;3.33;;;2.77;;
2388;SDS011;1205;47.984;7.668;2024-01-30T06:06:52;4.13;;;2.50;;
2388;SDS011;1205;47.984;7.668;2024-01-30T06:09:17;2.30;;;2.20;;
2388;SDS011;1205;47.984;7.668;2024-01-30T06:11:43;2.47;;;2.37;;
2388;SDS011;1205;47.984;7.668;2024-01-30T06:14:09;2.80;;;2.50;;
2388;SDS011;1205;47.984;7.668;2024-01-30T06:16:34;2.87;;;2.67;;
2388;SDS011;1205;47.984;7.668;2024-01-30T06:19:00;2.53;;;2.33;;
2388;SDS011;1205;47.984;7.668;2024-01-30T06:21:25;2.93;;;2.73;;
2388;SDS011;1205;47.984;7.668;2024-01-30T06:23:51;2.90;;;2.70;;
2388;SDS011;1205;47.984;7.668;2024-01-30T06:26:16;1.90;;;1.80;;
2388;SDS011;1205;47.984;7.668;2024-01-30T06:28:42;3.00;;;2.80;;
2388;SDS011;1205;47.984;7.668;2024-01-30T06:31:07;3.67;;;3.30;;
2388;SDS011;1205;47.984;7.668;2024-01-30T06:33:33;3.00;;;2.70;;
2388;SDS011;1205;47.984;7.668;2024-01-30T06:35:58;4.73;;;2.60;;
2388;SDS011;1205;47.984;7.668;2024-01-30T06:38:24;3.20;;;3.00;;
2388;SDS011;1205;47.984;7.668;2024-01-30T06:40:50;4.67;;;2.77;;
2388;SDS011;1205;47.984;7.668;2024-01-30T06:43:15;2.80;;;2.60;;
2388;SDS011;1205;47.984;7.668;2024-01-30T06:45:41;4.83;;;3.00;;
2388;SDS011;1205;47.984;7.668;2024-01-30T06:48:07;3.60;;;3.30;;
2388;SDS011;1205;47.984;7.668;2024-01-30T06:50:33;3.33;;;2.90;;
2388;SDS011;1205;47.984;7.668;2024-01-30T06:52:58;2.50;;;2.40;;
2388;SDS011;1205;47.984;7.668;2024-01-30T06:55:24;7.80;;;2.80;;
2388;SDS011;1205;47.984;7.668;2024-01-30T06:57:49;3.57;;;2.87;;
2388;SDS011;1205;47.984;7.668;2024-01-30T07:00:15;3.20;;;2.90;;
2388;SDS011;1205;47.984;7.668;2024-01-30T07:02:41;3.63;;;3.37;;
2388;SDS011;1205;47.984;7.668;2024-01-30T07:05:07;4.00;;;3.30;;
2388;SDS011;1205;47.984;7.668;2024-01-30T07:07:33;3.53;;;3.30;;
2388;SDS011;1205;47.984;7.668;2024-01-30T07:09:58;4.07;;;3.60;;
2388;SDS011;1205;47.984;7.668;2024-01-30T07:12:24;4.37;;;3.33;;
2388;SDS011;1205;47.984;7.668;2024-01-30T07:14:50;4.10;;;3.50;;
2388;SDS011;1205;47.984;7.668;2024-01-30T07:17:16;3.20;;;2.90;;
2388;SDS011;1205;47.984;7.668;2024-01-30T07:19:42;5.30;;;3.57;;
2388;SDS011;1205;47.984;7.668;2024-01-30T07:22:08;5.07;;;2.67;;
2388;SDS011;1205;47.984;7.668;2024-01-30T07:24:34;3.87;;;3.40;;
2388;SDS011;1205;47.984;7.668;2024-01-30T07:26:59;4.37;;;3.13;;
2388;SDS011;1205;47.984;7.668;2024-01-30T07:29:25;4.70;;;3.30;;
2388;SDS011;1205;47.984;7.668;2024-01-30T07:31:50;3.50;;;3.20;;
2388;SDS011;1205;47.984;7.668;2024-01-30T07:34:16;3.60;;;3.20;;
2388;SDS011;1205;47.984;7.668;2024-01-30T07:36:41;3.23;;;2.93;;
2388;SDS011;1205;47.984;7.668;2024-01-30T07:39:07;4.70;;;3.40;;
2388;SDS011;1205;47.984;7.668;2024-01-30T07:41:33;3.43;;;2.93;;
2388;SDS011;1205;47.984;7.668;2024-01-30T07:43:58;3.83;;;3.43;;
2388;SDS011;1205;47.984;7.668;2024-01-30T07:46:24;8.73;;;3.40;;
2388;SDS011;1205;47.984;7.668;2024-01-30T07:48:49;3.93;;;2.87;;
2388;SDS011;1205;47.984;7.668;2024-01-30T07:51:16;3.60;;;2.70;;
2388;SDS011;1205;47.984;7.668;2024-01-30T07:53:41;4.70;;;2.90;;
2388;SDS011;1205;47.984;7.668;2024-01-30T07:56:07;2.33;;;2.13;;
2388;SDS011;1205;47.984;7.668;2024-01-30T07:58:32;4.13;;;2.73;;
2388;SDS011;1205;47.984;7.668;2024-01-30T08:00:58;2.67;;;2.47;;
2388;SDS011;1205;47.984;7.668;2024-01-30T08:03:25;6.10;;;2.83;;
2388;SDS011;1205;47.984;7.668;2024-01-30T08:05:51;3.27;;;2.97;;
2388;SDS011;1205;47.984;7.668;2024-01-30T08:08:16;4.30;;;3.30;;
2388;SDS011;1205;47.984;7.668;2024-01-30T08:10:42;3.90;;;2.40;;
2388;SDS011;1205;47.984;7.668;2024-01-30T08:13:08;2.83;;;2.63;;
2388;SDS011;1205;47.984;7.668;2024-01-30T08:15:34;3.37;;;3.07;;
2388;SDS011;1205;47.984;7.668;2024-01-30T08:17:59;3.50;;;3.20;;
2388;SDS011;1205;47.984;7.668;2024-01-30T08:20:25;2.97;;;2.77;;
2388;SDS011;1205;47.984;7.668;2024-01-30T08:22:51;3.07;;;2.80;;
2388;SDS011;1205;47.984;7.668;2024-01-30T08:25:17;2.80;;;2.50;;
2388;SDS011;1205;47.984;7.668;2024-01-30T08:27:43;5.93;;;3.00;;
2388;SDS011;1205;47.984;7.668;2024-01-30T08:30:10;3.07;;;2.87;;
2388;SDS011;1205;47.984;7.668;2024-01-30T08:32:35;4.60;;;3.00;;
2388;SDS011;1205;47.984;7.668;2024-01-30T08:35:01;3.73;;;3.00;;
2388;SDS011;1205;47.984;7.668;2024-01-30T08:37:29;3.07;;;2.87;;
2388;SDS011;1205;47.984;7.668;2024-01-30T08:39:55;3.73;;;2.73;;
2388;SDS011;1205;47.984;7.668;2024-01-30T08:42:21;4.27;;;2.80;;
2388;SDS011;1205;47.984;7.668;2024-01-30T08:44:47;2.53;;;2.43;;
2388;SDS011;1205;47.984;7.668;2024-01-30T08:47:18;3.67;;;2.80;;
2388;SDS011;1205;47.984;7.668;2024-01-30T08:49:44;4.03;;;2.93;;
2388;SDS011;1205;47.984;7.668;2024-01-30T08:52:10;4.03;;;2.90;;
2388;SDS011;1205;47.984;7.668;2024-01-30T08:54:36;4.33;;;3.07;;
2388;SDS011;1205;47.984;7.668;2024-01-30T08:57:01;3.50;;;3.17;;
2388;SDS011;1205;47.984;7.668;2024-01-30T08:59:27;3.23;;;2.93;;
2388;SDS011;1205;47.984;7.668;2024-01-30T09:01:53;3.13;;;2.83;;
2388;SDS011;1205;47.984;7.668;2024-01-30T09:04:20;5.20;;;2.80;;
2388;SDS011;1205;47.984;7.668;2024-01-30T09:06:46;3.03;;;2.77;;
2388;SDS011;1205;47.984;7.668;2024-01-30T09:09:12;3.23;;;2.97;;
2388;SDS011;1205;47.984;7.668;2024-01-30T09:11:39;12.73;;;5.90;;
2388;SDS011;1205;47.984;7.668;2024-01-30T09:14:05;16.33;;;3.60;;
2388;SDS011;1205;47.984;7.668;2024-01-30T09:16:30;3.80;;;3.10;;
2388;SDS011;1205;47.984;7.668;2024-01-30T09:18:56;4.20;;;3.23;;
2388;SDS011;1205;47.984;7.668;2024-01-30T09:21:22;6.80;;;3.30;;
2388;SDS011;1205;47.984;7.668;2024-01-30T09:23:48;3.90;;;2.97;;
2388;SDS011;1205;47.984;7.668;2024-01-30T09:26:13;7.60;;;3.40;;
2388;SDS011;1205;47.984;7.668;2024-01-30T09:28:39;3.33;;;3.10;;
2388;SDS011;1205;47.984;7.668;2024-01-30T09:31:09;4.20;;;3.57;;
2388;SDS011;1205;47.984;7.668;2024-01-30T09:33:35;3.40;;;3.10;;
2388;SDS011;1205;47.984;7.668;2024-01-30T09:36:01;5.03;;;3.50;;
2388;SDS011;1205;47.984;7.668;2024-01-30T09:38:27;3.50;;;3.13;;
2388;SDS011;1205;47.984;7.668;2024-01-30T09:40:53;3.83;;;3.53;;
2388;SDS011;1205;47.984;7.668;2024-01-30T09:43:23;4.73;;;3.67;;
2388;SDS011;1205;47.984;7.668;2024-01-30T09:45:49;6.97;;;3.47;;
2388;SDS011;1205;47.984;7.668;2024-01-30T09:48:16;7.20;;;3.60;;
2388;SDS011;1205;47.984;7.668;2024-01-30T09:50:41;3.80;;;3.50;;
2388;SDS011;1205;47.984;7.668;2024-01-30T09:53:08;3.57;;;3.23;;
2388;SDS011;1205;47.984;7.668;2024-01-30T09:55:34;5.83;;;3.37;;
2388;SDS011;1205;47.984;7.668;2024-01-30T09:58:01;5.17;;;3.33;;
2388;SDS011;1205;47.984;7.668;2024-01-30T10:00:27;3.70;;;3.13;;
2388;SDS011;1205;47.984;7.668;2024-01-30T10:02:53;3.20;;;2.87;;
2388;SDS011;1205;47.984;7.668;2024-01-30T10:05:19;5.13;;;3.37;;
2388;SDS011;1205;47.984;7.668;2024-01-30T10:07:54;4.00;;;2.90;;
2388;SDS011;1205;47.984;7.668;2024-01-30T10:10:24;4.60;;;3.37;;
2388;SDS011;1205;47.984;7.668;2024-01-30T10:12:50;3.40;;;3.10;;
2388;SDS011;1205;47.984;7.668;2024-01-30T10:15:16;4.00;;;2.70;;
2388;SDS011;1205;47.984;7.668;2024-01-30T10:17:44;3.27;;;3.07;;
2388;SDS011;1205;47.984;7.668;2024-01-30T10:20:10;8.20;;;3.10;;
2388;SDS011;1205;47.984;7.668;2024-01-30T10:22:36;3.23;;;2.93;;
2388;SDS011;1205;47.984;7.668;2024-01-30T10:25:02;4.00;;;3.07;;
2388;SDS011;1205;47.984;7.668;2024-01-30T10:27:28;5.17;;;3.30;;
2388;SDS011;1205;47.984;7.668;2024-01-30T10:29:54;3.63;;;2.80;;
2388;SDS011;1205;47.984;7.668;2024-01-30T10:32:20;3.40;;;2.80;;
2388;SDS011;1205;47.984;7.668;2024-01-30T10:34:46;3.27;;;2.97;;
2388;SDS011;1205;47.984;7.668;2024-01-30T10:37:12;5.73;;;3.20;;
2388;SDS011;1205;47.984;7.668;2024-01-30T10:39:38;8.47;;;3.17;;
2388;SDS011;1205;47.984;7.668;2024-01-30T10:42:05;4.43;;;2.90;;
2388;SDS011;1205;47.984;7.668;2024-01-30T10:44:36;3.30;;;2.60;;
2388;SDS011;1205;47.984;7.668;2024-01-30T10:47:11;4.10;;;2.30;;
2388;SDS011;1205;47.984;7.668;2024-01-30T10:49:39;4.10;;;2.63;;
2388;SDS011;1205;47.984;7.668;2024-01-30T10:52:06;4.80;;;2.50;;
2388;SDS011;1205;47.984;7.668;2024-01-30T10:54:34;3.80;;;3.07;;
2388;SDS011;1205;47.984;7.668;2024-01-30T10:57:01;7.00;;;2.50;;
2388;SDS011;1205;47.984;7.668;2024-01-30T10:59:28;2.80;;;2.60;;
2388;SDS011;1205;47.984;7.668;2024-01-30T11:01:56;3.53;;;2.83;;
2388;SDS011;1205;47.984;7.668;2024-01-30T11:04:23;3.10;;;2.63;;
2388;SDS011;1205;47.984;7.668;2024-01-30T11:06:50;3.03;;;2.93;;
2388;SDS011;1205;47.984;7.668;2024-01-30T11:09:16;6.07;;;4.00;;
2388;SDS011;1205;47.984;7.668;2024-01-30T11:14:14;2.70;;;2.30;;
2388;SDS011;1205;47.984;7.668;2024-01-30T11:16:40;2.53;;;2.40;;
2388;SDS011;1205;47.984;7.668;2024-01-30T11:19:05;5.17;;;2.90;;
2388;SDS011;1205;47.984;7.668;2024-01-30T11:21:41;3.20;;;2.83;;
2388;SDS011;1205;47.984;7.668;2024-01-30T11:24:07;3.60;;;2.90;;
2388;SDS011;1205;47.984;7.668;2024-01-30T11:26:33;2.90;;;2.77;;
2388;SDS011;1205;47.984;7.668;2024-01-30T11:28:59;3.60;;;3.23;;
2388;SDS011;1205;47.984;7.668;2024-01-30T11:31:29;3.80;;;2.93;;
2388;SDS011;1205;47.984;7.668;2024-01-30T11:33:55;3.77;;;3.40;;
2388;SDS011;1205;47.984;7.668;2024-01-30T11:36:23;7.63;;;2.73;;
2388;SDS011;1205;47.984;7.668;2024-01-30T11:38:51;3.03;;;2.60;;
2388;SDS011;1205;47.984;7.668;2024-01-30T11:41:17;5.33;;;3.50;;
2388;SDS011;1205;47.984;7.668;2024-01-30T11:43:43;2.63;;;2.43;;
2388;SDS011;1205;47.984;7.668;2024-01-30T11:46:16;3.30;;;3.00;;
2388;SDS011;1205;47.984;7.668;2024-01-30T11:48:41;4.00;;;3.17;;
2388;SDS011;1205;47.984;7.668;2024-01-30T11:51:07;7.07;;;3.67;;
2388;SDS011;1205;47.984;7.668;2024-01-30T11:53:32;4.47;;;3.80;;
2388;SDS011;1205;47.984;7.668;2024-01-30T11:55:58;3.50;;;3.20;;
2388;SDS011;1205;47.984;7.668;2024-01-30T11:58:26;4.73;;;4.20;;
2388;SDS011;1205;47.984;7.668;2024-01-30T12:00:55;8.93;;;3.50;;
2388;SDS011;1205;47.984;7.668;2024-01-30T12:03:21;6.30;;;3.40;;
2388;SDS011;1205;47.984;7.668;2024-01-30T12:05:47;3.40;;;3.13;;
2388;SDS011;1205;47.984;7.668;2024-01-30T12:08:21;11.60;;;3.80;;
2388;SDS011;1205;47.984;7.668;2024-01-30T12:10:54;6.40;;;3.50;;
2388;SDS011;1205;47.984;7.668;2024-01-30T12:13:21;4.77;;;3.50;;
2388;SDS011;1205;47.984;7.668;2024-01-30T12:15:46;4.23;;;3.27;;
2388;SDS011;1205;47.984;7.668;2024-01-30T12:18:12;5.37;;;3.50;;
2388;SDS011;1205;47.984;7.668;2024-01-30T12:20:38;4.07;;;3.50;;
2388;SDS011;1205;47.984;7.668;2024-01-30T12:23:03;5.40;;;3.30;;
2388;SDS011;1205;47.984;7.668;2024-01-30T12:25:29;3.40;;;3.10;;
2388;SDS011;1205;47.984;7.668;2024-01-30T12:27:54;4.77;;;3.70;;
2388;SDS011;1205;47.984;7.668;2024-01-30T12:30:20;4.23;;;3.00;;
2388;SDS011;1205;47.984;7.668;2024-01-30T12:32:46;4.87;;;3.07;;
2388;SDS011;1205;47.984;7.668;2024-01-30T12:35:15;4.10;;;3.70;;
2388;SDS011;1205;47.984;7.668;2024-01-30T12:37:45;3.23;;;3.00;;
2388;SDS011;1205;47.984;7.668;2024-01-30T12:40:11;3.13;;;2.83;;
2388;SDS011;1205;47.984;7.668;2024-01-30T12:42:39;8.53;;;3.97;;
2388;SDS011;1205;47.984;7.668;2024-01-30T12:45:13;6.97;;;3.13;;
2388;SDS011;1205;47.984;7.668;2024-01-30T12:47:40;4.23;;;2.83;;
2388;SDS011;1205;47.984;7.668;2024-01-30T12:50:06;4.00;;;3.37;;
2388;SDS011;1205;47.984;7.668;2024-01-30T12:52:32;5.93;;;3.20;;
2388;SDS011;1205;47.984;7.668;2024-01-30T12:54:57;5.23;;;2.87;;
2388;SDS011;1205;47.984;7.668;2024-01-30T12:57:23;3.03;;;2.80;;
2388;SDS011;1205;47.984;7.668;2024-01-30T12:59:49;7.23;;;3.63;;
2388;SDS011;1205;47.984;7.668;2024-01-30T13:02:14;5.80;;;2.80;;
2388;SDS011;1205;47.984;7.668;2024-01-30T13:04:40;5.93;;;2.70;;
2388;SDS011;1205;47.984;7.668;2024-01-30T13:07:06;2.90;;;2.70;;
2388;SDS011;1205;47.984;7.668;2024-01-30T13:09:31;2.93;;;2.70;;
2388;SDS011;1205;47.984;7.668;2024-01-30T13:11:57;6.10;;;3.83;;
2388;SDS011;1205;47.984;7.668;2024-01-30T13:14:24;9.20;;;3.23;;
2388;SDS011;1205;47.984;7.668;2024-01-30T13:16:50;5.97;;;3.47;;
2388;SDS011;1205;47.984;7.668;2024-01-30T13:19:15;3.30;;;2.97;;
2388;SDS011;1205;47.984;7.668;2024-01-30T13:21:41;4.40;;;3.30;;
2388;SDS011;1205;47.984;7.668;2024-01-30T13:24:07;3.70;;;3.40;;
2388;SDS011;1205;47.984;7.668;2024-01-30T13:26:33;5.43;;;3.40;;
2388;SDS011;1205;47.984;7.668;2024-01-30T13:28:58;3.10;;;2.90;;
2388;SDS011;1205;47.984;7.668;2024-01-30T13:31:24;3.30;;;3.00;;
2388;SDS011;1205;47.984;7.668;2024-01-30T13:33:50;3.60;;;2.80;;
2388;SDS011;1205;47.984;7.668;2024-01-30T13:36:15;3.10;;;2.90;;
2388;SDS011;1205;47.984;7.668;2024-01-30T13:38:41;3.73;;;2.70;;
2388;SDS011;1205;47.984;7.668;2024-01-30T13:41:07;3.90;;;3.10;;
2388;SDS011;1205;47.984;7.668;2024-01-30T13:43:32;8.30;;;3.80;;
2388;SDS011;1205;47.984;7.668;2024-01-30T13:45:58;4.40;;;2.83;;
2388;SDS011;1205;47.984;7.668;2024-01-30T13:48:24;4.47;;;3.40;;
2388;SDS011;1205;47.984;7.668;2024-01-30T13:50:49;5.10;;;4.40;;
2388;SDS011;1205;47.984;7.668;2024-01-30T13:53:15;8.77;;;4.13;;
2388;SDS011;1205;47.984;7.668;2024-01-30T13:55:41;4.70;;;3.90;;
2388;SDS011;1205;47.984;7.668;2024-01-30T13:58:06;7.27;;;4.03;;
2388;SDS011;1205;47.984;7.668;2024-01-30T14:00:32;6.00;;;3.90;;
2388;SDS011;1205;47.984;7.668;2024-01-30T14:02:59;7.50;;;4.00;;
2388;SDS011;1205;47.984;7.668;2024-01-30T14:05:25;4.87;;;4.37;;
2388;SDS011;1205;47.984;7.668;2024-01-30T14:07:51;4.23;;;3.80;;
2388;SDS011;1205;47.984;7.668;2024-01-30T14:10:17;4.50;;;3.40;;
2388;SDS011;1205;47.984;7.668;2024-01-30T14:12:43;6.00;;;3.87;;
2388;SDS011;1205;47.984;7.668;2024-01-30T14:15:09;5.53;;;3.60;;
2388;SDS011;1205;47.984;7.668;2024-01-30T14:17:36;3.40;;;3.20;;
2388;SDS011;1205;47.984;7.668;2024-01-30T14:20:04;5.00;;;3.10;;
2388;SDS011;1205;47.984;7.668;2024-01-30T14:22:32;4.90;;;3.43;;
2388;SDS011;1205;47.984;7.668;2024-01-30T14:24:58;3.40;;;3.20;;
2388;SDS011;1205;47.984;7.668;2024-01-30T14:27:24;4.20;;;3.23;;
2388;SDS011;1205;47.984;7.668;2024-01-30T14:29:49;4.07;;;3.70;;
2388;SDS011;1205;47.984;7.668;2024-01-30T14:32:15;4.00;;;3.30;;
2388;SDS011;1205;47.984;7.668;2024-01-30T14:34:41;6.23;;;3.57;;
2388;SDS011;1205;47.984;7.668;2024-01-30T14:37:06;6.40;;;4.10;;
2388;SDS011;1205;47.984;7.668;2024-01-30T14:39:33;7.13;;;3.17;;
2388;SDS011;1205;47.984;7.668;2024-01-30T14:42:02;3.50;;;3.20;;
2388;SDS011;1205;47.984;7.668;2024-01-30T14:44:28;5.23;;;3.27;;
2388;SDS011;1205;47.984;7.668;2024-01-30T14:46:54;3.73;;;3.00;;
2388;SDS011;1205;47.984;7.668;2024-01-30T14:49:20;3.37;;;3.10;;
2388;SDS011;1205;47.984;7.668;2024-01-30T14:51:45;3.87;;;3.50;;
2388;SDS011;1205;47.984;7.668;2024-01-30T14:54:11;3.77;;;2.87;;
2388;SDS011;1205;47.984;7.668;2024-01-30T14:56:37;5.23;;;3.17;;
2388;SDS011;1205;47.984;7.668;2024-01-30T14:59:03;5.03;;;3.10;;
2388;SDS011;1205;47.984;7.668;2024-01-30T15:01:28;3.83;;;3.20;;
2388;SDS011;1205;47.984;7.668;2024-01-30T15:03:54;3.67;;;3.23;;
2388;SDS011;1205;47.984;7.668;2024-01-30T15:06:20;7.30;;;3.13;;
2388;SDS011;1205;47.984;7.668;2024-01-30T15:08:49;5.40;;;2.93;;
2388;SDS011;1205;47.984;7.668;2024-01-30T15:11:15;6.10;;;3.17;;